sensor_id;sensor_type;location;lat;lon;timestamp;P1;durP1;ratioP1;P2;durP2;ratioP2
23336;SDS011;11840;45.414;12.372;2024-02-14T08:35:16;12.82;;;9.05;;
23336;SDS011;11840;45.414;12.372;2024-02-14T08:37:42;13.32;;;8.93;;
23336;SDS011;11840;45.414;12.372;2024-02-14T08:40:08;14.63;;;8.98;;
23336;SDS011;11840;45.414;12.372;2024-02-14T08:42:35;13.85;;;9.00;;
23336;SDS011;11840;45.414;12.372;2024-02-14T08:45:01;13.27;;;9.90;;
23336;SDS011;11840;45.414;12.372;2024-02-14T08:47:27;11.95;;;6.38;;
23336;SDS011;11840;45.414;12.372;2024-02-14T08:49:53;8.18;;;6.20;;
23336;SDS011;11840;45.414;12.372;2024-02-14T08:52:19;9.70;;;5.85;;
23336;SDS011;11840;45.414;12.372;2024-02-14T08:54:46;11.45;;;5.95;;
23336;SDS011;11840;45.414;12.372;2024-02-14T08:57:12;10.73;;;6.20;;
23336;SDS011;11840;45.414;12.372;2024-02-14T08:59:38;9.20;;;6.40;;
23336;SDS011;11840;45.414;12.372;2024-02-14T09:02:06;12.02;;;7.68;;
23336;SDS011;11840;45.414;12.372;2024-02-14T09:04:32;11.10;;;7.45;;
23336;SDS011;11840;45.414;12.372;2024-02-14T09:06:59;10.27;;;6.72;;
23336;SDS011;11840;45.414;12.372;2024-02-14T09:09:25;12.00;;;7.20;;
23336;SDS011;11840;45.414;12.372;2024-02-14T09:11:51;12.50;;;7.63;;
23336;SDS011;11840;45.414;12.372;2024-02-14T09:14:18;11.20;;;7.68;;
23336;SDS011;11840;45.414;12.372;2024-02-14T09:16:43;12.43;;;8.15;;
23336;SDS011;11840;45.414;12.372;2024-02-14T09:19:11;16.15;;;8.63;;
23336;SDS011;11840;45.414;12.372;2024-02-14T09:21:38;10.63;;;7.95;;
23336;SDS011;11840;45.414;12.372;2024-02-14T09:24:04;13.90;;;9.27;;
23336;SDS011;11840;45.414;12.372;2024-02-14T09:26:30;11.95;;;7.90;;
23336;SDS011;11840;45.414;12.372;2024-02-14T09:28:56;12.65;;;7.30;;
23336;SDS011;11840;45.414;12.372;2024-02-14T09:31:23;11.65;;;7.97;;
23336;SDS011;11840;45.414;12.372;2024-02-14T09:33:49;13.20;;;8.40;;
23336;SDS011;11840;45.414;12.372;2024-02-14T09:36:15;15.07;;;9.35;;
23336;SDS011;11840;45.414;12.372;2024-02-14T09:38:42;16.73;;;9.48;;
23336;SDS011;11840;45.414;12.372;2024-02-14T09:41:14;13.07;;;7.63;;
23336;SDS011;11840;45.414;12.372;2024-02-14T09:43:45;14.33;;;9.13;;
23336;SDS011;11840;45.414;12.372;2024-02-14T09:46:12;16.30;;;9.40;;
23336;SDS011;11840;45.414;12.372;2024-02-14T09:48:39;19.70;;;9.98;;
23336;SDS011;11840;45.414;12.372;2024-02-14T09:51:05;13.30;;;8.82;;
23336;SDS011;11840;45.414;12.372;2024-02-14T09:53:33;15.82;;;9.20;;
23336;SDS011;11840;45.414;12.372;2024-02-14T09:55:59;19.08;;;9.63;;
23336;SDS011;11840;45.414;12.372;2024-02-14T09:58:26;16.10;;;7.95;;
23336;SDS011;11840;45.414;12.372;2024-02-14T10:00:54;11.32;;;7.28;;
23336;SDS011;11840;45.414;12.372;2024-02-14T10:03:20;12.88;;;8.30;;
23336;SDS011;11840;45.414;12.372;2024-02-14T10:05:46;11.07;;;7.15;;
23336;SDS011;11840;45.414;12.372;2024-02-14T10:08:13;11.15;;;7.38;;
23336;SDS011;11840;45.414;12.372;2024-02-14T10:10:40;18.73;;;10.75;;
23336;SDS011;11840;45.414;12.372;2024-02-14T10:13:06;19.30;;;12.20;;
23336;SDS011;11840;45.414;12.372;2024-02-14T10:15:32;15.10;;;10.50;;
23336;SDS011;11840;45.414;12.372;2024-02-14T10:17:58;12.95;;;7.40;;
23336;SDS011;11840;45.414;12.372;2024-02-14T10:20:24;11.02;;;7.07;;
23336;SDS011;11840;45.414;12.372;2024-02-14T10:22:52;12.40;;;6.88;;
23336;SDS011;11840;45.414;12.372;2024-02-14T10:25:18;11.00;;;7.28;;
23336;SDS011;11840;45.414;12.372;2024-02-14T10:27:44;10.50;;;6.88;;
23336;SDS011;11840;45.414;12.372;2024-02-14T10:30:12;12.07;;;6.90;;
23336;SDS011;11840;45.414;12.372;2024-02-14T10:32:39;15.20;;;8.40;;
23336;SDS011;11840;45.414;12.372;2024-02-14T10:35:06;12.25;;;8.30;;
23336;SDS011;11840;45.414;12.372;2024-02-14T10:37:34;14.50;;;7.65;;
23336;SDS011;11840;45.414;12.372;2024-02-14T10:40:01;17.83;;;9.02;;
23336;SDS011;11840;45.414;12.372;2024-02-14T10:42:27;17.13;;;10.65;;
23336;SDS011;11840;45.414;12.372;2024-02-14T10:44:54;22.20;;;12.57;;
23336;SDS011;11840;45.414;12.372;2024-02-14T10:47:20;19.85;;;13.32;;
23336;SDS011;11840;45.414;12.372;2024-02-14T10:49:49;23.20;;;13.77;;
23336;SDS011;11840;45.414;12.372;2024-02-14T10:52:17;22.00;;;13.35;;
23336;SDS011;11840;45.414;12.372;2024-02-14T10:54:45;19.50;;;13.57;;
23336;SDS011;11840;45.414;12.372;2024-02-14T10:57:12;20.30;;;13.18;;
23336;SDS011;11840;45.414;12.372;2024-02-14T10:59:43;21.83;;;13.77;;
23336;SDS011;11840;45.414;12.372;2024-02-14T11:02:10;20.40;;;13.50;;
23336;SDS011;11840;45.414;12.372;2024-02-14T11:04:36;22.98;;;15.50;;
23336;SDS011;11840;45.414;12.372;2024-02-14T11:07:02;21.45;;;14.75;;
23336;SDS011;11840;45.414;12.372;2024-02-14T11:09:32;23.70;;;15.70;;
23336;SDS011;11840;45.414;12.372;2024-02-14T11:12:18;21.33;;;15.05;;
23336;SDS011;11840;45.414;12.372;2024-02-14T11:14:48;22.00;;;14.50;;
23336;SDS011;11840;45.414;12.372;2024-02-14T11:17:18;20.40;;;14.13;;
23336;SDS011;11840;45.414;12.372;2024-02-14T11:19:50;21.95;;;13.65;;
23336;SDS011;11840;45.414;12.372;2024-02-14T11:22:17;21.70;;;13.98;;
23336;SDS011;11840;45.414;12.372;2024-02-14T11:24:47;19.27;;;13.82;;
23336;SDS011;11840;45.414;12.372;2024-02-14T11:27:13;21.50;;;14.55;;
23336;SDS011;11840;45.414;12.372;2024-02-14T11:29:39;21.52;;;14.45;;
23336;SDS011;11840;45.414;12.372;2024-02-14T11:32:11;20.40;;;13.55;;
23336;SDS011;11840;45.414;12.372;2024-02-14T11:34:37;20.02;;;13.85;;
23336;SDS011;11840;45.414;12.372;2024-02-14T11:37:04;22.25;;;14.40;;
23336;SDS011;11840;45.414;12.372;2024-02-14T11:39:32;19.98;;;14.18;;
23336;SDS011;11840;45.414;12.372;2024-02-14T11:41:58;21.65;;;14.50;;
23336;SDS011;11840;45.414;12.372;2024-02-14T11:44:26;19.65;;;13.60;;
23336;SDS011;11840;45.414;12.372;2024-02-14T11:46:52;21.27;;;13.93;;
23336;SDS011;11840;45.414;12.372;2024-02-14T11:49:18;20.95;;;13.07;;
23336;SDS011;11840;45.414;12.372;2024-02-14T11:51:44;19.58;;;13.25;;
23336;SDS011;11840;45.414;12.372;2024-02-14T11:54:10;19.08;;;13.68;;
23336;SDS011;11840;45.414;12.372;2024-02-14T11:56:37;21.17;;;13.85;;
23336;SDS011;11840;45.414;12.372;2024-02-14T11:59:03;20.42;;;13.13;;
23336;SDS011;11840;45.414;12.372;2024-02-14T12:01:30;23.23;;;14.35;;
23336;SDS011;11840;45.414;12.372;2024-02-14T12:04:15;24.08;;;15.18;;
23336;SDS011;11840;45.414;12.372;2024-02-14T12:06:41;24.75;;;16.23;;
23336;SDS011;11840;45.414;12.372;2024-02-14T12:09:07;27.85;;;16.58;;
23336;SDS011;11840;45.414;12.372;2024-02-14T12:11:36;28.80;;;17.08;;
23336;SDS011;11840;45.414;12.372;2024-02-14T12:14:05;28.92;;;17.65;;
23336;SDS011;11840;45.414;12.372;2024-02-14T12:16:33;21.83;;;14.77;;
23336;SDS011;11840;45.414;12.372;2024-02-14T12:19:05;23.50;;;16.20;;
23336;SDS011;11840;45.414;12.372;2024-02-14T12:21:35;25.83;;;15.68;;
23336;SDS011;11840;45.414;12.372;2024-02-14T12:24:11;27.00;;;16.63;;
23336;SDS011;11840;45.414;12.372;2024-02-14T12:26:42;26.75;;;17.50;;
23336;SDS011;11840;45.414;12.372;2024-02-14T12:29:08;27.35;;;16.50;;
23336;SDS011;11840;45.414;12.372;2024-02-14T12:31:34;26.65;;;17.20;;
23336;SDS011;11840;45.414;12.372;2024-02-14T12:34:02;27.17;;;17.20;;
23336;SDS011;11840;45.414;12.372;2024-02-14T12:36:28;29.50;;;17.50;;
23336;SDS011;11840;45.414;12.372;2024-02-14T12:38:55;30.70;;;18.38;;
23336;SDS011;11840;45.414;12.372;2024-02-14T12:41:21;29.65;;;18.35;;
23336;SDS011;11840;45.414;12.372;2024-02-14T12:43:49;32.78;;;20.42;;
23336;SDS011;11840;45.414;12.372;2024-02-14T12:46:15;36.67;;;20.90;;
23336;SDS011;11840;45.414;12.372;2024-02-14T12:48:41;28.90;;;17.38;;
23336;SDS011;11840;45.414;12.372;2024-02-14T12:51:07;29.55;;;17.45;;
23336;SDS011;11840;45.414;12.372;2024-02-14T12:53:35;27.58;;;17.38;;
23336;SDS011;11840;45.414;12.372;2024-02-14T12:56:00;26.23;;;16.27;;
23336;SDS011;11840;45.414;12.372;2024-02-14T12:58:26;26.27;;;16.73;;
23336;SDS011;11840;45.414;12.372;2024-02-14T13:00:52;26.38;;;15.52;;
23336;SDS011;11840;45.414;12.372;2024-02-14T13:03:19;24.92;;;15.98;;
23336;SDS011;11840;45.414;12.372;2024-02-14T13:05:45;21.77;;;14.40;;
23336;SDS011;11840;45.414;12.372;2024-02-14T13:08:12;23.45;;;15.02;;
23336;SDS011;11840;45.414;12.372;2024-02-14T13:10:38;25.98;;;15.90;;
23336;SDS011;11840;45.414;12.372;2024-02-14T13:13:05;22.33;;;13.82;;
23336;SDS011;11840;45.414;12.372;2024-02-14T13:15:31;20.67;;;13.80;;
23336;SDS011;11840;45.414;12.372;2024-02-14T13:17:57;19.60;;;13.15;;
23336;SDS011;11840;45.414;12.372;2024-02-14T13:20:25;27.38;;;15.88;;
23336;SDS011;11840;45.414;12.372;2024-02-14T13:22:51;24.70;;;15.32;;
23336;SDS011;11840;45.414;12.372;2024-02-14T13:25:18;28.83;;;15.70;;
23336;SDS011;11840;45.414;12.372;2024-02-14T13:27:44;25.95;;;16.10;;
23336;SDS011;11840;45.414;12.372;2024-02-14T13:30:10;24.25;;;15.90;;
23336;SDS011;11840;45.414;12.372;2024-02-14T13:32:36;27.42;;;16.05;;
23336;SDS011;11840;45.414;12.372;2024-02-14T13:35:02;25.90;;;16.60;;
23336;SDS011;11840;45.414;12.372;2024-02-14T13:37:29;24.45;;;16.00;;
23336;SDS011;11840;45.414;12.372;2024-02-14T13:39:55;24.80;;;16.33;;
23336;SDS011;11840;45.414;12.372;2024-02-14T13:42:21;25.27;;;16.13;;
23336;SDS011;11840;45.414;12.372;2024-02-14T13:44:47;26.63;;;16.33;;
23336;SDS011;11840;45.414;12.372;2024-02-14T13:47:13;31.25;;;17.17;;
23336;SDS011;11840;45.414;12.372;2024-02-14T13:49:39;29.10;;;17.58;;
23336;SDS011;11840;45.414;12.372;2024-02-14T13:52:05;26.77;;;16.00;;
23336;SDS011;11840;45.414;12.372;2024-02-14T13:54:32;30.13;;;18.08;;
23336;SDS011;11840;45.414;12.372;2024-02-14T13:56:59;29.05;;;17.23;;
23336;SDS011;11840;45.414;12.372;2024-02-14T13:59:25;25.05;;;16.45;;
23336;SDS011;11840;45.414;12.372;2024-02-14T14:01:51;28.50;;;17.27;;
23336;SDS011;11840;45.414;12.372;2024-02-14T14:04:17;28.50;;;17.13;;
23336;SDS011;11840;45.414;12.372;2024-02-14T14:06:43;28.83;;;17.98;;
23336;SDS011;11840;45.414;12.372;2024-02-14T14:09:09;26.75;;;17.88;;
23336;SDS011;11840;45.414;12.372;2024-02-14T14:11:35;34.35;;;22.88;;
23336;SDS011;11840;45.414;12.372;2024-02-14T14:14:01;35.28;;;23.60;;
23336;SDS011;11840;45.414;12.372;2024-02-14T14:16:28;39.75;;;24.42;;
23336;SDS011;11840;45.414;12.372;2024-02-14T14:18:54;41.42;;;25.27;;
23336;SDS011;11840;45.414;12.372;2024-02-14T14:21:21;46.42;;;28.98;;
23336;SDS011;11840;45.414;12.372;2024-02-14T14:23:47;42.88;;;28.10;;
23336;SDS011;11840;45.414;12.372;2024-02-14T14:26:13;39.67;;;26.55;;
23336;SDS011;11840;45.414;12.372;2024-02-14T14:28:41;42.40;;;27.05;;
23336;SDS011;11840;45.414;12.372;2024-02-14T14:31:07;42.08;;;27.83;;
23336;SDS011;11840;45.414;12.372;2024-02-14T14:33:36;40.60;;;27.52;;
23336;SDS011;11840;45.414;12.372;2024-02-14T14:36:04;41.50;;;27.15;;
23336;SDS011;11840;45.414;12.372;2024-02-14T14:38:30;41.65;;;27.55;;
23336;SDS011;11840;45.414;12.372;2024-02-14T14:40:57;41.42;;;27.13;;
23336;SDS011;11840;45.414;12.372;2024-02-14T14:43:24;40.65;;;27.25;;
23336;SDS011;11840;45.414;12.372;2024-02-14T14:45:51;42.22;;;27.98;;
23336;SDS011;11840;45.414;12.372;2024-02-14T14:48:18;48.00;;;29.52;;
23336;SDS011;11840;45.414;12.372;2024-02-14T14:50:45;42.10;;;27.90;;
23336;SDS011;11840;45.414;12.372;2024-02-14T14:53:10;42.70;;;28.45;;
23336;SDS011;11840;45.414;12.372;2024-02-14T14:55:56;58.15;;;28.25;;
23336;SDS011;11840;45.414;12.372;2024-02-14T14:58:22;46.58;;;31.05;;
23336;SDS011;11840;45.414;12.372;2024-02-14T15:00:49;41.33;;;28.60;;
23336;SDS011;11840;45.414;12.372;2024-02-14T15:03:15;45.30;;;26.92;;
23336;SDS011;11840;45.414;12.372;2024-02-14T15:05:41;43.70;;;27.52;;
23336;SDS011;11840;45.414;12.372;2024-02-14T15:08:07;48.22;;;28.00;;
23336;SDS011;11840;45.414;12.372;2024-02-14T15:10:33;57.22;;;27.27;;
23336;SDS011;11840;45.414;12.372;2024-02-14T15:12:59;60.58;;;27.15;;
23336;SDS011;11840;45.414;12.372;2024-02-14T15:15:26;46.53;;;28.90;;
23336;SDS011;11840;45.414;12.372;2024-02-14T15:17:52;44.30;;;28.80;;
23336;SDS011;11840;45.414;12.372;2024-02-14T15:20:19;53.72;;;28.27;;
23336;SDS011;11840;45.414;12.372;2024-02-14T15:22:45;50.42;;;28.38;;
23336;SDS011;11840;45.414;12.372;2024-02-14T15:25:11;41.60;;;28.42;;
23336;SDS011;11840;45.414;12.372;2024-02-14T15:27:36;42.58;;;28.85;;
23336;SDS011;11840;45.414;12.372;2024-02-14T15:30:09;52.13;;;28.55;;
23336;SDS011;11840;45.414;12.372;2024-02-14T15:32:54;42.45;;;27.20;;
23336;SDS011;11840;45.414;12.372;2024-02-14T15:35:39;39.33;;;27.80;;
23336;SDS011;11840;45.414;12.372;2024-02-14T15:38:05;39.40;;;28.20;;
23336;SDS011;11840;45.414;12.372;2024-02-14T15:40:31;40.92;;;28.00;;
23336;SDS011;11840;45.414;12.372;2024-02-14T15:42:59;39.95;;;28.33;;
23336;SDS011;11840;45.414;12.372;2024-02-14T15:45:26;41.72;;;28.15;;
23336;SDS011;11840;45.414;12.372;2024-02-14T15:47:53;41.65;;;28.40;;
23336;SDS011;11840;45.414;12.372;2024-02-14T15:50:19;42.72;;;29.92;;
23336;SDS011;11840;45.414;12.372;2024-02-14T15:52:45;45.97;;;28.98;;
23336;SDS011;11840;45.414;12.372;2024-02-14T15:55:11;42.50;;;29.02;;
23336;SDS011;11840;45.414;12.372;2024-02-14T15:57:39;43.50;;;29.60;;
23336;SDS011;11840;45.414;12.372;2024-02-14T16:00:06;43.75;;;30.40;;
23336;SDS011;11840;45.414;12.372;2024-02-14T16:02:36;41.03;;;29.20;;
23336;SDS011;11840;45.414;12.372;2024-02-14T16:05:01;40.97;;;28.85;;
23336;SDS011;11840;45.414;12.372;2024-02-14T16:07:31;41.53;;;29.35;;
23336;SDS011;11840;45.414;12.372;2024-02-14T16:09:57;43.17;;;29.92;;
23336;SDS011;11840;45.414;12.372;2024-02-14T16:12:23;44.08;;;29.90;;
23336;SDS011;11840;45.414;12.372;2024-02-14T16:14:49;37.97;;;27.92;;
23336;SDS011;11840;45.414;12.372;2024-02-14T16:17:16;49.58;;;29.70;;
23336;SDS011;11840;45.414;12.372;2024-02-14T16:19:42;63.17;;;29.75;;
23336;SDS011;11840;45.414;12.372;2024-02-14T16:22:09;43.42;;;30.38;;
23336;SDS011;11840;45.414;12.372;2024-02-14T16:24:36;83.93;;;31.20;;
23336;SDS011;11840;45.414;12.372;2024-02-14T16:27:02;76.10;;;30.83;;
23336;SDS011;11840;45.414;12.372;2024-02-14T16:29:29;42.08;;;29.70;;
23336;SDS011;11840;45.414;12.372;2024-02-14T16:31:56;43.10;;;30.55;;
23336;SDS011;11840;45.414;12.372;2024-02-14T16:34:23;45.58;;;30.83;;
23336;SDS011;11840;45.414;12.372;2024-02-14T16:36:50;94.38;;;30.65;;
23336;SDS011;11840;45.414;12.372;2024-02-14T16:39:16;53.60;;;30.90;;
23336;SDS011;11840;45.414;12.372;2024-02-14T16:41:42;112.15;;;72.30;;
23336;SDS011;11840;45.414;12.372;2024-02-14T16:44:09;43.47;;;31.25;;
23336;SDS011;11840;45.414;12.372;2024-02-14T16:46:35;51.60;;;31.23;;
23336;SDS011;11840;45.414;12.372;2024-02-14T16:49:01;50.38;;;30.42;;
23336;SDS011;11840;45.414;12.372;2024-02-14T16:51:28;47.95;;;28.20;;
23336;SDS011;11840;45.414;12.372;2024-02-14T16:53:54;45.00;;;29.70;;
23336;SDS011;11840;45.414;12.372;2024-02-14T16:56:20;53.40;;;29.27;;
23336;SDS011;11840;45.414;12.372;2024-02-14T16:58:46;50.35;;;29.83;;
23336;SDS011;11840;45.414;12.372;2024-02-14T17:01:12;48.67;;;30.48;;
23336;SDS011;11840;45.414;12.372;2024-02-14T17:03:39;40.40;;;30.52;;
23336;SDS011;11840;45.414;12.372;2024-02-14T17:06:06;42.85;;;30.92;;
23336;SDS011;11840;45.414;12.372;2024-02-14T17:08:32;47.50;;;30.23;;
23336;SDS011;11840;45.414;12.372;2024-02-14T17:10:58;47.10;;;31.05;;
23336;SDS011;11840;45.414;12.372;2024-02-14T17:13:24;44.72;;;31.10;;
23336;SDS011;11840;45.414;12.372;2024-02-14T17:15:50;82.65;;;32.78;;
23336;SDS011;11840;45.414;12.372;2024-02-14T17:18:15;59.90;;;31.60;;
23336;SDS011;11840;45.414;12.372;2024-02-14T17:20:42;55.05;;;32.67;;
23336;SDS011;11840;45.414;12.372;2024-02-14T17:23:11;46.72;;;31.55;;
23336;SDS011;11840;45.414;12.372;2024-02-14T17:25:37;57.88;;;32.63;;
23336;SDS011;11840;45.414;12.372;2024-02-14T17:28:04;80.40;;;33.20;;
23336;SDS011;11840;45.414;12.372;2024-02-14T17:30:30;64.10;;;32.90;;
23336;SDS011;11840;45.414;12.372;2024-02-14T17:32:57;102.55;;;31.33;;
23336;SDS011;11840;45.414;12.372;2024-02-14T17:35:24;59.20;;;33.78;;
23336;SDS011;11840;45.414;12.372;2024-02-14T17:37:49;99.10;;;33.88;;
23336;SDS011;11840;45.414;12.372;2024-02-14T17:40:15;50.95;;;33.97;;
23336;SDS011;11840;45.414;12.372;2024-02-14T17:42:41;108.95;;;35.00;;
23336;SDS011;11840;45.414;12.372;2024-02-14T17:45:09;83.10;;;34.03;;
23336;SDS011;11840;45.414;12.372;2024-02-14T17:47:35;115.45;;;34.92;;
23336;SDS011;11840;45.414;12.372;2024-02-14T17:50:01;116.13;;;35.58;;
23336;SDS011;11840;45.414;12.372;2024-02-14T17:52:28;52.72;;;34.38;;
23336;SDS011;11840;45.414;12.372;2024-02-14T17:54:54;64.93;;;35.00;;
23336;SDS011;11840;45.414;12.372;2024-02-14T17:57:20;78.07;;;33.88;;
23336;SDS011;11840;45.414;12.372;2024-02-14T17:59:48;91.88;;;33.95;;
23336;SDS011;11840;45.414;12.372;2024-02-14T18:02:14;107.35;;;33.75;;
23336;SDS011;11840;45.414;12.372;2024-02-14T18:04:40;117.40;;;33.60;;
23336;SDS011;11840;45.414;12.372;2024-02-14T18:07:06;145.20;;;34.40;;
23336;SDS011;11840;45.414;12.372;2024-02-14T18:09:33;141.15;;;74.38;;
23336;SDS011;11840;45.414;12.372;2024-02-14T18:12:00;68.13;;;43.78;;
23336;SDS011;11840;45.414;12.372;2024-02-14T18:14:25;58.95;;;30.35;;
23336;SDS011;11840;45.414;12.372;2024-02-14T18:16:53;50.67;;;32.75;;
23336;SDS011;11840;45.414;12.372;2024-02-14T18:19:20;52.70;;;33.08;;
23336;SDS011;11840;45.414;12.372;2024-02-14T18:21:46;91.43;;;33.72;;
23336;SDS011;11840;45.414;12.372;2024-02-14T18:24:13;72.97;;;35.80;;
23336;SDS011;11840;45.414;12.372;2024-02-14T18:26:39;99.05;;;35.33;;
23336;SDS011;11840;45.414;12.372;2024-02-14T18:29:06;58.00;;;33.90;;
23336;SDS011;11840;45.414;12.372;2024-02-14T18:31:33;61.15;;;32.33;;
23336;SDS011;11840;45.414;12.372;2024-02-14T18:33:59;66.85;;;32.45;;
23336;SDS011;11840;45.414;12.372;2024-02-14T18:36:25;57.67;;;33.42;;
23336;SDS011;11840;45.414;12.372;2024-02-14T18:38:51;52.60;;;32.50;;
23336;SDS011;11840;45.414;12.372;2024-02-14T18:41:18;69.05;;;32.25;;
23336;SDS011;11840;45.414;12.372;2024-02-14T18:43:44;55.50;;;32.85;;
23336;SDS011;11840;45.414;12.372;2024-02-14T18:46:11;68.50;;;33.50;;
23336;SDS011;11840;45.414;12.372;2024-02-14T18:48:37;74.78;;;34.17;;
23336;SDS011;11840;45.414;12.372;2024-02-14T18:51:05;61.33;;;32.80;;
23336;SDS011;11840;45.414;12.372;2024-02-14T18:53:31;56.85;;;35.20;;
23336;SDS011;11840;45.414;12.372;2024-02-14T18:55:57;62.67;;;34.45;;
23336;SDS011;11840;45.414;12.372;2024-02-14T18:58:23;65.45;;;34.08;;
23336;SDS011;11840;45.414;12.372;2024-02-14T19:00:49;64.20;;;35.65;;
23336;SDS011;11840;45.414;12.372;2024-02-14T19:03:17;92.32;;;53.75;;
23336;SDS011;11840;45.414;12.372;2024-02-14T19:05:43;81.40;;;52.72;;
23336;SDS011;11840;45.414;12.372;2024-02-14T19:08:09;196.90;;;35.60;;
23336;SDS011;11840;45.414;12.372;2024-02-14T19:10:35;64.95;;;35.28;;
23336;SDS011;11840;45.414;12.372;2024-02-14T19:13:01;61.55;;;34.08;;
23336;SDS011;11840;45.414;12.372;2024-02-14T19:15:27;63.72;;;34.28;;
23336;SDS011;11840;45.414;12.372;2024-02-14T19:17:53;51.00;;;33.40;;
23336;SDS011;11840;45.414;12.372;2024-02-14T19:20:21;55.92;;;34.10;;
23336;SDS011;11840;45.414;12.372;2024-02-14T19:22:48;52.08;;;34.42;;
23336;SDS011;11840;45.414;12.372;2024-02-14T19:25:14;51.22;;;33.72;;
23336;SDS011;11840;45.414;12.372;2024-02-14T19:27:40;47.20;;;32.80;;
23336;SDS011;11840;45.414;12.372;2024-02-14T19:30:07;46.70;;;32.10;;
23336;SDS011;11840;45.414;12.372;2024-02-14T19:32:33;60.25;;;31.90;;
23336;SDS011;11840;45.414;12.372;2024-02-14T19:35:04;52.92;;;32.67;;
23336;SDS011;11840;45.414;12.372;2024-02-14T19:37:31;53.15;;;32.55;;
23336;SDS011;11840;45.414;12.372;2024-02-14T19:39:57;54.20;;;31.88;;
23336;SDS011;11840;45.414;12.372;2024-02-14T19:42:23;49.63;;;31.80;;
23336;SDS011;11840;45.414;12.372;2024-02-14T19:44:50;83.47;;;51.85;;
23336;SDS011;11840;45.414;12.372;2024-02-14T19:47:16;51.95;;;32.42;;
23336;SDS011;11840;45.414;12.372;2024-02-14T19:49:42;52.83;;;31.77;;
23336;SDS011;11840;45.414;12.372;2024-02-14T19:52:09;119.90;;;33.65;;
23336;SDS011;11840;45.414;12.372;2024-02-14T19:54:37;58.83;;;32.72;;
23336;SDS011;11840;45.414;12.372;2024-02-14T19:57:03;54.33;;;32.65;;
23336;SDS011;11840;45.414;12.372;2024-02-14T19:59:30;76.13;;;33.70;;
23336;SDS011;11840;45.414;12.372;2024-02-14T20:01:56;47.28;;;30.73;;
23336;SDS011;11840;45.414;12.372;2024-02-14T20:04:21;46.92;;;32.90;;
23336;SDS011;11840;45.414;12.372;2024-02-14T20:06:48;48.95;;;31.85;;
23336;SDS011;11840;45.414;12.372;2024-02-14T20:09:16;53.53;;;33.60;;
23336;SDS011;11840;45.414;12.372;2024-02-14T20:11:43;53.00;;;32.22;;
23336;SDS011;11840;45.414;12.372;2024-02-14T20:14:09;62.58;;;30.50;;
23336;SDS011;11840;45.414;12.372;2024-02-14T20:16:34;64.78;;;32.40;;
23336;SDS011;11840;45.414;12.372;2024-02-14T20:19:01;59.63;;;32.85;;
23336;SDS011;11840;45.414;12.372;2024-02-14T20:21:29;58.95;;;34.03;;
23336;SDS011;11840;45.414;12.372;2024-02-14T20:23:55;51.28;;;33.15;;
23336;SDS011;11840;45.414;12.372;2024-02-14T20:26:21;70.85;;;34.13;;
23336;SDS011;11840;45.414;12.372;2024-02-14T20:28:48;70.97;;;33.08;;
23336;SDS011;11840;45.414;12.372;2024-02-14T20:31:14;62.17;;;33.28;;
23336;SDS011;11840;45.414;12.372;2024-02-14T20:33:41;57.50;;;32.22;;
23336;SDS011;11840;45.414;12.372;2024-02-14T20:36:08;51.75;;;32.13;;
23336;SDS011;11840;45.414;12.372;2024-02-14T20:38:34;61.47;;;32.38;;
23336;SDS011;11840;45.414;12.372;2024-02-14T20:41:01;57.90;;;31.77;;
23336;SDS011;11840;45.414;12.372;2024-02-14T20:43:27;47.83;;;32.75;;
23336;SDS011;11840;45.414;12.372;2024-02-14T20:45:54;49.78;;;32.65;;
23336;SDS011;11840;45.414;12.372;2024-02-14T20:48:20;45.90;;;31.15;;
23336;SDS011;11840;45.414;12.372;2024-02-14T20:50:47;57.55;;;32.28;;
23336;SDS011;11840;45.414;12.372;2024-02-14T20:53:14;53.22;;;31.38;;
23336;SDS011;11840;45.414;12.372;2024-02-14T20:55:40;74.13;;;32.28;;
23336;SDS011;11840;45.414;12.372;2024-02-14T20:58:06;57.03;;;30.08;;
23336;SDS011;11840;45.414;12.372;2024-02-14T21:00:32;45.85;;;29.27;;
23336;SDS011;11840;45.414;12.372;2024-02-14T21:03:00;68.78;;;28.80;;
23336;SDS011;11840;45.414;12.372;2024-02-14T21:05:26;68.28;;;29.85;;
23336;SDS011;11840;45.414;12.372;2024-02-14T21:07:53;64.70;;;29.17;;
23336;SDS011;11840;45.414;12.372;2024-02-14T21:10:24;65.03;;;29.08;;
23336;SDS011;11840;45.414;12.372;2024-02-14T21:12:53;59.72;;;28.38;;
23336;SDS011;11840;45.414;12.372;2024-02-14T21:15:19;55.72;;;28.88;;
23336;SDS011;11840;45.414;12.372;2024-02-14T21:17:46;56.55;;;28.13;;
23336;SDS011;11840;45.414;12.372;2024-02-14T21:20:13;69.05;;;29.80;;
23336;SDS011;11840;45.414;12.372;2024-02-14T21:22:40;40.97;;;28.27;;
23336;SDS011;11840;45.414;12.372;2024-02-14T21:25:06;69.63;;;27.73;;
23336;SDS011;11840;45.414;12.372;2024-02-14T21:27:33;53.78;;;27.75;;
23336;SDS011;11840;45.414;12.372;2024-02-14T21:30:00;45.85;;;27.02;;
23336;SDS011;11840;45.414;12.372;2024-02-14T21:32:26;63.53;;;28.45;;
23336;SDS011;11840;45.414;12.372;2024-02-14T21:34:53;57.33;;;31.05;;
23336;SDS011;11840;45.414;12.372;2024-02-14T21:37:19;63.13;;;41.40;;
23336;SDS011;11840;45.414;12.372;2024-02-14T21:39:46;47.42;;;28.05;;
23336;SDS011;11840;45.414;12.372;2024-02-14T21:42:13;48.35;;;27.45;;
23336;SDS011;11840;45.414;12.372;2024-02-14T21:44:39;59.65;;;27.00;;
23336;SDS011;11840;45.414;12.372;2024-02-14T21:47:07;45.15;;;27.73;;
23336;SDS011;11840;45.414;12.372;2024-02-14T21:49:33;49.42;;;28.02;;
23336;SDS011;11840;45.414;12.372;2024-02-14T21:52:00;46.70;;;27.33;;
